Sturgeon Falls, Canada
Current Conditions -  °F | °C
As of 8:00 AM on Saturday 20 Dec 2014 (Local Time) from CYSB Reporting Station
Haze Haze  
Wind Chill:   Ceiling: 100
Heat Index:   Visibility: 1.5mi
Dew Point:   Wind: 3mph
Humidity: 85%   Direction: 10°N
Pressure: 30.28"   Gusts: NA
Location:  46.37°N, 79.93°W
Report Text: CYSB 201300Z 01003KT 1 1/2SM BR VV001 M15/M17 A3028 RMK FG8 VIS VRB 1/2-2 1/2 RIME ON INDICATOR SLP285
Loading
Personal Weather Stations






























Interactive Weather Map New forecast layout! Learn more

10-Day Weather Forecast

Advertisements
Track Severe Weather on mobile